Time;durP1;ratioP1;P1;durP2;ratioP2;P2;SDS_P1;SDS_P2;PMS_P1;PMS_P2;Temp;Humidity;BMP_temperature;BMP_pressure;BME280_temperature;BME280_humidity;BME280_pressure;Samples;Min_cycle;Max_cycle;Signal;HPM_P1;HPM_P2
2023/03/14 00:01:31;;;;;;;2.88;0.57;;;17.70;62.00;;;;;;7399498;19;19911;-75
2023/03/14 00:03:57;;;;;;;6.05;0.80;;;17.80;62.10;;;;;;7400773;19;19915;-74
2023/03/14 00:06:23;;;;;;;3.22;0.90;;;17.70;62.60;;;;;;7399748;19;19929;-75
2023/03/14 00:08:49;;;;;;;1.30;0.40;;;17.50;63.20;;;;;;7403391;19;19988;-74
2023/03/14 00:11:21;;;;;;;2.78;1.05;;;17.40;63.60;;;;;;7372985;19;19946;-75
2023/03/14 00:13:50;;;;;;;2.42;0.52;;;17.40;63.90;;;;;;7395459;19;20301;-75
2023/03/14 00:16:17;;;;;;;3.17;0.68;;;17.20;64.50;;;;;;7401225;19;19953;-75
2023/03/14 00:18:43;;;;;;;4.05;0.60;;;17.30;64.80;;;;;;7406926;19;19930;-74
2023/03/14 00:21:10;;;;;;;1.60;0.40;;;17.20;64.90;;;;;;7405060;19;19942;-75
2023/03/14 00:23:38;;;;;;;2.92;0.60;;;17.10;65.60;;;;;;7406151;19;19930;-73
2023/03/14 00:26:06;;;;;;;3.45;0.45;;;17.00;66.00;;;;;;7382967;19;19911;-74
2023/03/14 00:28:33;;;;;;;5.32;0.77;;;17.00;66.40;;;;;;7406153;19;20259;-75
2023/03/14 00:30:59;;;;;;;4.60;0.47;;;17.00;66.60;;;;;;7405240;19;20023;-74
2023/03/14 00:33:24;;;;;;;6.38;0.80;;;17.10;66.60;;;;;;7404475;19;19919;-74
2023/03/14 00:36:02;;;;;;;4.10;0.52;;;16.90;67.00;;;;;;7404260;19;19976;-74
2023/03/14 00:38:28;;;;;;;4.15;0.57;;;16.80;67.60;;;;;;7401024;19;19922;-74
2023/03/14 00:40:54;;;;;;;5.13;0.82;;;16.90;67.80;;;;;;7403239;19;19919;-75
2023/03/14 00:43:21;;;;;;;5.78;0.80;;;16.80;67.70;;;;;;7406227;19;19911;-73
2023/03/14 00:45:51;;;;;;;3.47;0.50;;;16.70;68.20;;;;;;7406099;19;20365;-74
2023/03/14 00:48:19;;;;;;;4.32;0.80;;;16.70;67.60;;;;;;7403406;19;20263;-73
2023/03/14 00:50:45;;;;;;;4.00;0.70;;;16.70;65.60;;;;;;7407155;19;20476;-73
2023/03/14 00:53:11;;;;;;;2.92;0.52;;;16.70;64.80;;;;;;7404908;19;19922;-74
2023/03/14 00:55:42;;;;;;;2.75;0.55;;;16.90;63.60;;;;;;7405533;19;19994;-73
2023/03/14 00:58:08;;;;;;;4.43;0.98;;;16.70;63.70;;;;;;7403841;19;19918;-74
2023/03/14 01:00:35;;;;;;;2.83;0.52;;;16.60;63.90;;;;;;7402108;19;20261;-76
2023/03/14 01:03:01;;;;;;;3.75;0.68;;;16.50;63.50;;;;;;7404351;19;19919;-74
2023/03/14 01:05:30;;;;;;;5.20;0.68;;;16.30;64.10;;;;;;7401657;19;19930;-73
2023/03/14 01:07:56;;;;;;;2.58;0.82;;;16.20;64.60;;;;;;7402909;19;20360;-73
2023/03/14 01:10:31;;;;;;;3.05;0.57;;;16.00;64.70;;;;;;7364638;19;19920;-73
2023/03/14 01:12:57;;;;;;;3.63;0.60;;;15.80;65.30;;;;;;7405701;19;20247;-74
2023/03/14 01:15:24;;;;;;;4.20;0.73;;;15.70;65.90;;;;;;7404731;19;19962;-74
2023/03/14 01:17:50;;;;;;;4.15;0.65;;;15.50;66.40;;;;;;7401811;19;19927;-73
2023/03/14 01:20:16;;;;;;;3.55;0.65;;;15.30;66.50;;;;;;7404582;19;19915;-74
2023/03/14 01:22:43;;;;;;;3.65;0.50;;;15.40;66.30;;;;;;7401386;19;19910;-74
2023/03/14 01:25:12;;;;;;;2.38;0.50;;;15.50;66.40;;;;;;7403457;19;19918;-74
2023/03/14 01:27:38;;;;;;;3.05;0.88;;;15.30;66.70;;;;;;7403612;19;19978;-74
2023/03/14 01:30:05;;;;;;;3.00;0.60;;;15.30;66.80;;;;;;7401685;19;19935;-74
2023/03/14 01:32:30;;;;;;;3.45;0.90;;;15.40;63.50;;;;;;7404948;19;19927;-74
2023/03/14 01:34:56;;;;;;;2.97;0.50;;;15.50;64.60;;;;;;7399911;19;19914;-74
2023/03/14 01:37:22;;;;;;;5.60;0.60;;;15.60;64.40;;;;;;7398419;19;19938;-74
2023/03/14 01:39:48;;;;;;;1.30;0.30;;;15.60;65.50;;;;;;7405073;19;19938;-74
2023/03/14 01:42:15;;;;;;;2.05;0.47;;;15.60;63.40;;;;;;7401744;19;20232;-73
2023/03/14 01:44:53;;;;;;;;;;;15.80;63.00;;;;;;7402930;19;19923;-74
2023/03/14 01:47:18;;;;;;;1.83;0.47;;;15.80;62.30;;;;;;7401018;19;19918;-74
2023/03/14 01:50:15;;;;;;;1.80;0.38;;;16.00;62.20;;;;;;7401041;19;19918;-74
2023/03/14 01:52:47;;;;;;;3.35;0.52;;;16.00;61.70;;;;;;7400614;19;19915;-74
2023/03/14 01:55:17;;;;;;;3.42;0.52;;;16.00;62.20;;;;;;7402299;19;20252;-73
2023/03/14 01:57:47;;;;;;;3.97;1.00;;;16.00;62.30;;;;;;7401359;19;19926;-73
2023/03/14 02:00:16;;;;;;;2.00;0.40;;;16.00;62.60;;;;;;7404101;19;19918;-73
2023/03/14 02:02:45;;;;;;;2.30;0.43;;;15.80;62.70;;;;;;7401492;19;19918;-74
2023/03/14 02:05:14;;;;;;;2.92;0.50;;;15.90;62.90;;;;;;7402334;19;19918;-74
2023/03/14 02:07:51;;;;;;;2.05;0.40;;;15.90;63.20;;;;;;7403547;19;20291;-73
2023/03/14 02:10:19;;;;;;;4.22;0.40;;;15.70;63.50;;;;;;7400942;19;19914;-73
2023/03/14 02:12:47;;;;;;;4.05;0.50;;;15.80;63.40;;;;;;7401505;19;19933;-74
2023/03/14 02:15:13;;;;;;;3.53;0.70;;;15.70;63.80;;;;;;7401652;19;19934;-74
2023/03/14 02:17:42;;;;;;;4.45;0.63;;;15.60;64.00;;;;;;7404009;19;19914;-74
2023/03/14 02:20:34;;;;;;;3.92;0.95;;;15.50;64.40;;;;;;7368936;19;19919;-74
2023/03/14 02:23:00;;;;;;;4.47;0.65;;;15.30;65.10;;;;;;7403849;19;19914;-74
2023/03/14 02:25:45;;;;;;;3.72;0.70;;;15.20;65.80;;;;;;7405157;19;19918;-72
2023/03/14 02:28:12;;;;;;;4.57;0.63;;;15.10;68.00;;;;;;7402895;19;19914;-73
2023/03/14 02:30:38;;;;;;;3.13;0.60;;;15.00;68.80;;;;;;7380559;19;20312;-73
2023/03/14 02:33:19;;;;;;;3.58;0.60;;;14.80;68.70;;;;;;7398592;19;19922;-73
2023/03/14 02:35:47;;;;;;;4.72;0.80;;;14.70;68.30;;;;;;7404850;19;19914;-73
2023/03/14 02:38:35;;;;;;;3.13;0.45;;;14.60;68.30;;;;;;7402927;19;19921;-73
2023/03/14 02:41:01;;;;;;;3.85;0.70;;;14.60;68.30;;;;;;7402051;19;19917;-73
2023/03/14 02:43:26;;;;;;;6.82;1.10;;;14.60;76.10;;;;;;7401731;19;19914;-73
2023/03/14 02:45:53;;;;;;;8.73;1.10;;;14.50;79.20;;;;;;7401268;19;19910;-73
2023/03/14 02:48:31;;;;;;;;;;;14.30;81.00;;;;;;7402325;19;19926;-73
2023/03/14 02:51:00;;;;;;;8.65;1.40;;;14.10;81.90;;;;;;7401180;19;19919;-73
2023/03/14 02:53:32;;;;;;;5.75;1.00;;;13.90;82.40;;;;;;7407934;19;19953;-73
2023/03/14 02:55:58;;;;;;;5.32;1.25;;;13.90;82.90;;;;;;7407878;19;20387;-73
2023/03/14 02:58:24;;;;;;;4.63;1.00;;;13.80;83.40;;;;;;7404518;19;20347;-73
2023/03/14 03:00:50;;;;;;;5.95;1.05;;;13.70;83.50;;;;;;7408461;19;20430;-73
2023/03/14 03:03:16;;;;;;;7.50;1.10;;;13.60;83.90;;;;;;7408211;19;19914;-73
2023/03/14 03:05:43;;;;;;;3.97;1.00;;;13.90;84.30;;;;;;7409302;19;20011;-73
2023/03/14 03:08:09;;;;;;;;;;;13.90;81.70;;;;;;7408566;19;19933;-75
2023/03/14 03:10:35;;;;;;;4.68;0.50;;;13.80;82.40;;;;;;7409378;19;19919;-74
2023/03/14 03:13:01;;;;;;;4.72;0.50;;;14.40;70.50;;;;;;7409103;19;20249;-75
2023/03/14 03:15:27;;;;;;;2.50;0.52;;;14.80;69.30;;;;;;7407501;19;19919;-73
2023/03/14 03:17:53;;;;;;;3.75;0.40;;;14.70;70.20;;;;;;7408650;19;19921;-74
2023/03/14 03:20:19;;;;;;;6.05;0.52;;;14.80;68.50;;;;;;7405402;19;20002;-73
2023/03/14 03:22:45;;;;;;;4.15;0.57;;;14.60;69.80;;;;;;7408992;19;19998;-73
2023/03/14 03:25:10;;;;;;;3.20;0.50;;;14.40;70.10;;;;;;7409390;19;20270;-74
2023/03/14 03:27:38;;;;;;;4.65;0.60;;;14.60;69.50;;;;;;7408300;19;19922;-74
2023/03/14 03:30:05;;;;;;;2.47;0.45;;;14.60;69.10;;;;;;7408561;19;19918;-74
2023/03/14 03:32:31;;;;;;;1.92;0.32;;;14.60;69.60;;;;;;7407173;19;20309;-74
2023/03/14 03:34:57;;;;;;;4.45;0.70;;;14.70;68.60;;;;;;7406860;19;19914;-74
2023/03/14 03:37:24;;;;;;;4.15;0.50;;;14.70;68.30;;;;;;7405545;19;20345;-75
2023/03/14 03:39:53;;;;;;;1.63;0.32;;;14.60;68.60;;;;;;7410034;19;19982;-73
2023/03/14 03:42:20;;;;;;;3.88;0.40;;;14.50;68.80;;;;;;7404832;19;19942;-73
2023/03/14 03:44:45;;;;;;;;;;;14.50;68.50;;;;;;7410972;19;20272;-73
2023/03/14 03:47:11;;;;;;;4.47;0.60;;;14.70;68.10;;;;;;7374243;19;19925;-74
2023/03/14 03:49:37;;;;;;;2.08;0.40;;;14.80;67.60;;;;;;7375544;19;19923;-74
2023/03/14 03:52:02;;;;;;;3.55;0.50;;;14.80;67.60;;;;;;7407735;19;19915;-74
2023/03/14 03:54:31;;;;;;;4.30;0.63;;;14.70;67.80;;;;;;7354780;19;19910;-73
2023/03/14 03:56:57;;;;;;;4.97;1.02;;;14.60;67.80;;;;;;7407149;19;19919;-74
2023/03/14 03:59:23;;;;;;;2.53;0.52;;;14.50;68.10;;;;;;7405424;19;20515;-74
2023/03/14 04:01:48;;;;;;;6.57;0.50;;;14.40;68.40;;;;;;7407677;19;19907;-74
2023/03/14 04:04:14;;;;;;;7.25;0.70;;;14.20;68.90;;;;;;7403977;19;19914;-74
2023/03/14 04:06:41;;;;;;;2.85;0.60;;;14.20;68.70;;;;;;7407255;19;19919;-73
2023/03/14 04:09:08;;;;;;;;;;;14.30;68.70;;;;;;7378505;19;19927;-74
2023/03/14 04:11:34;;;;;;;3.85;0.55;;;14.50;68.40;;;;;;7406423;19;20380;-73
2023/03/14 04:13:59;;;;;;;4.13;0.68;;;14.50;68.40;;;;;;7408926;19;19923;-74
2023/03/14 04:16:27;;;;;;;2.30;0.30;;;14.40;68.60;;;;;;7404950;19;20392;-74
2023/03/14 04:18:53;;;;;;;2.42;0.40;;;14.40;69.00;;;;;;7405619;19;20340;-73
2023/03/14 04:21:19;;;;;;;3.47;0.60;;;14.30;69.20;;;;;;7404067;19;20024;-74
2023/03/14 04:23:45;;;;;;;1.98;0.43;;;14.30;69.40;;;;;;7407038;19;19946;-74
2023/03/14 04:26:11;;;;;;;5.85;0.68;;;14.30;69.40;;;;;;7403226;19;19922;-74
2023/03/14 04:28:38;;;;;;;5.47;0.95;;;14.20;69.60;;;;;;7406088;19;19919;-72
2023/03/14 04:31:17;;;;;;;4.60;0.70;;;14.20;69.80;;;;;;7402880;19;19918;-74
2023/03/14 04:33:42;;;;;;;3.83;0.60;;;14.10;70.10;;;;;;7403963;19;19914;-74
2023/03/14 04:36:09;;;;;;;5.30;1.00;;;14.10;70.30;;;;;;7404138;19;20240;-73
2023/03/14 04:38:35;;;;;;;4.00;0.57;;;14.00;70.50;;;;;;7406530;19;19914;-73
2023/03/14 04:41:01;;;;;;;4.90;0.65;;;14.10;70.50;;;;;;7401948;19;19923;-73
2023/03/14 04:43:26;;;;;;;3.63;0.70;;;14.00;70.70;;;;;;7405091;19;19994;-75
2023/03/14 04:45:56;;;;;;;3.17;0.50;;;13.90;70.90;;;;;;7406202;19;19935;-73
2023/03/14 04:48:23;;;;;;;3.03;0.63;;;13.90;71.10;;;;;;7405240;19;20995;-73
2023/03/14 04:50:49;;;;;;;4.30;0.60;;;13.90;71.10;;;;;;7406253;19;19930;-73
2023/03/14 04:53:16;;;;;;;5.13;0.70;;;13.80;71.20;;;;;;7404328;19;19950;-75
2023/03/14 04:55:47;;;;;;;4.50;0.85;;;13.80;71.40;;;;;;7406486;19;19923;-74
2023/03/14 04:58:12;;;;;;;3.50;0.70;;;13.70;71.80;;;;;;7399780;19;20268;-74
2023/03/14 05:00:38;;;;;;;3.72;0.70;;;13.60;72.20;;;;;;7405574;19;19919;-73
2023/03/14 05:03:04;;;;;;;3.47;0.65;;;13.40;72.60;;;;;;7381660;19;20311;-74
2023/03/14 05:05:30;;;;;;;3.97;0.47;;;13.40;72.80;;;;;;7373720;19;20259;-74
2023/03/14 05:07:55;;;;;;;2.65;0.50;;;13.50;72.40;;;;;;7406962;19;20705;-75
2023/03/14 05:10:21;;;;;;;3.25;0.60;;;13.60;72.20;;;;;;7375269;19;19921;-75
2023/03/14 05:12:47;;;;;;;3.88;0.77;;;13.50;72.40;;;;;;7405552;19;19911;-76
2023/03/14 05:15:13;;;;;;;3.33;0.43;;;13.50;72.60;;;;;;7401769;19;19918;-75
2023/03/14 05:17:38;;;;;;;7.60;0.70;;;13.60;72.50;;;;;;7406385;19;19914;-75
2023/03/14 05:20:09;;;;;;;2.45;0.55;;;13.50;72.70;;;;;;7400737;19;19914;-76
2023/03/14 05:22:35;;;;;;;4.15;0.63;;;13.50;72.40;;;;;;7404788;19;20343;-76
2023/03/14 05:25:01;;;;;;;3.50;0.82;;;13.60;72.40;;;;;;7372620;19;19922;-75
2023/03/14 05:27:27;;;;;;;3.10;0.52;;;13.60;72.40;;;;;;7405791;19;20369;-77
2023/03/14 05:29:53;;;;;;;2.92;0.73;;;13.50;72.60;;;;;;7408046;19;19922;-75
2023/03/14 05:32:18;;;;;;;4.22;0.80;;;13.50;72.80;;;;;;7398816;19;19915;-76
2023/03/14 05:34:44;;;;;;;3.83;0.60;;;13.40;72.80;;;;;;7402788;19;20359;-75
2023/03/14 05:37:10;;;;;;;5.85;0.77;;;13.40;72.90;;;;;;7370328;19;19927;-74
2023/03/14 05:39:36;;;;;;;4.43;0.80;;;13.40;73.10;;;;;;7404525;19;20694;-75
2023/03/14 05:42:01;;;;;;;2.25;0.63;;;13.30;73.40;;;;;;7402709;19;19930;-74
2023/03/14 05:44:27;;;;;;;4.28;0.70;;;13.30;73.50;;;;;;7405325;19;19942;-75
2023/03/14 05:46:53;;;;;;;4.80;0.70;;;13.30;73.20;;;;;;7408512;19;19918;-75
2023/03/14 05:49:19;;;;;;;2.85;0.47;;;13.30;73.50;;;;;;7402324;19;20278;-74
2023/03/14 05:51:45;;;;;;;3.45;0.50;;;13.20;73.50;;;;;;7382446;19;19922;-76
2023/03/14 05:54:10;;;;;;;7.47;1.00;;;13.20;73.60;;;;;;7370767;19;19923;-74
2023/03/14 05:56:36;;;;;;;3.50;0.70;;;13.10;73.70;;;;;;7406039;19;20564;-74
2023/03/14 05:59:03;;;;;;;2.83;0.50;;;13.10;74.00;;;;;;7404684;19;19921;-74
2023/03/14 06:01:30;;;;;;;2.80;0.40;;;13.10;74.20;;;;;;7404626;19;19933;-76
2023/03/14 06:03:56;;;;;;;5.22;0.60;;;13.10;74.00;;;;;;7406472;19;19926;-73
2023/03/14 06:06:21;;;;;;;4.63;0.80;;;13.10;74.30;;;;;;7406859;19;25574;-75
2023/03/14 06:08:47;;;;;;;6.45;0.60;;;13.00;74.30;;;;;;7402805;19;19978;-75
2023/03/14 06:11:14;;;;;;;2.67;0.60;;;13.10;74.50;;;;;;7400440;19;19911;-74
2023/03/14 06:13:40;;;;;;;4.75;0.60;;;13.10;74.30;;;;;;7405206;19;20033;-74
2023/03/14 06:16:06;;;;;;;3.15;0.73;;;13.10;74.20;;;;;;7399679;19;19919;-75
2023/03/14 06:18:32;;;;;;;3.20;0.68;;;13.10;74.40;;;;;;7404522;19;20334;-76
2023/03/14 06:20:58;;;;;;;4.32;0.55;;;13.00;74.60;;;;;;7403757;19;19919;-75
2023/03/14 06:23:25;;;;;;;5.60;0.73;;;13.10;74.50;;;;;;7406291;19;19946;-75
2023/03/14 06:25:51;;;;;;;6.57;1.15;;;13.00;74.60;;;;;;7404624;19;19918;-76
2023/03/14 06:28:17;;;;;;;1.77;0.50;;;13.00;74.70;;;;;;7403895;19;19919;-75
2023/03/14 06:30:43;;;;;;;4.88;0.82;;;12.90;74.80;;;;;;7400292;19;19922;-75
2023/03/14 06:33:09;;;;;;;4.57;0.63;;;13.00;74.70;;;;;;7404409;19;19934;-74
2023/03/14 06:35:35;;;;;;;2.40;0.55;;;13.00;74.60;;;;;;7404820;19;19923;-76
2023/03/14 06:38:08;;;;;;;2.88;0.80;;;13.10;74.60;;;;;;7406538;19;19922;-76
2023/03/14 06:40:34;;;;;;;4.90;0.95;;;13.00;74.60;;;;;;7407287;19;19907;-75
2023/03/14 06:43:00;;;;;;;3.03;0.55;;;13.00;74.70;;;;;;7405678;19;19956;-75
2023/03/14 06:45:25;;;;;;;4.25;0.85;;;13.00;74.60;;;;;;7400501;19;19922;-75
2023/03/14 06:47:51;;;;;;;3.33;0.68;;;13.10;74.80;;;;;;7401980;19;19938;-74
2023/03/14 06:50:17;;;;;;;4.43;0.77;;;13.10;74.50;;;;;;7402356;19;19915;-76
2023/03/14 06:52:47;;;;;;;2.17;0.75;;;13.10;74.60;;;;;;7404449;19;20327;-75
2023/03/14 06:55:14;;;;;;;4.68;0.80;;;13.00;74.60;;;;;;7400909;19;19947;-75
2023/03/14 06:57:41;;;;;;;5.90;0.57;;;13.10;74.60;;;;;;7401805;19;19914;-75
2023/03/14 07:00:08;;;;;;;3.63;0.80;;;13.10;74.40;;;;;;7399339;19;19939;-75
2023/03/14 07:02:34;;;;;;;3.75;0.55;;;13.10;74.60;;;;;;7401032;19;19923;-75
2023/03/14 07:05:00;;;;;;;4.40;0.40;;;13.10;74.30;;;;;;7406059;19;20247;-74
2023/03/14 07:07:28;;;;;;;3.97;0.68;;;13.10;74.40;;;;;;7377522;19;19925;-75
2023/03/14 07:09:54;;;;;;;2.55;0.32;;;13.20;74.20;;;;;;7402170;19;19918;-74
2023/03/14 07:12:20;;;;;;;5.57;1.10;;;13.20;73.80;;;;;;7400289;19;19935;-74
2023/03/14 07:14:45;;;;;;;5.65;1.00;;;13.20;73.90;;;;;;7402664;19;19929;-76
2023/03/14 07:17:11;;;;;;;4.25;0.77;;;13.30;73.90;;;;;;7398396;19;19939;-75
2023/03/14 07:19:37;;;;;;;4.13;0.47;;;13.30;73.60;;;;;;7398092;19;19947;-75
2023/03/14 07:22:05;;;;;;;2.70;0.50;;;13.30;73.40;;;;;;7400430;19;20294;-74
2023/03/14 07:24:31;;;;;;;3.65;0.45;;;13.30;73.40;;;;;;7400988;19;19923;-78
2023/03/14 07:26:57;;;;;;;7.50;0.75;;;13.30;73.40;;;;;;7401239;19;19987;-76
2023/03/14 07:29:23;;;;;;;5.13;0.70;;;13.40;73.10;;;;;;7399726;19;19967;-74
2023/03/14 07:31:48;;;;;;;4.05;0.80;;;13.50;73.00;;;;;;7381431;19;20323;-74
2023/03/14 07:34:14;;;;;;;7.32;1.38;;;13.50;72.80;;;;;;7400916;19;19938;-74
2023/03/14 07:36:40;;;;;;;3.33;0.65;;;13.50;72.50;;;;;;7349790;19;19993;-76
2023/03/14 07:39:06;;;;;;;4.20;0.60;;;13.50;72.40;;;;;;7407317;19;20385;-73
2023/03/14 07:41:32;;;;;;;3.85;0.65;;;13.50;72.50;;;;;;7408852;19;19933;-74
2023/03/14 07:43:58;;;;;;;4.80;0.90;;;13.60;72.30;;;;;;7410088;19;19963;-75
2023/03/14 07:46:24;;;;;;;5.18;0.93;;;13.60;72.00;;;;;;7405181;19;19931;-75
2023/03/14 07:48:49;;;;;;;3.53;0.63;;;13.70;71.80;;;;;;7409887;19;19919;-75
2023/03/14 07:51:15;;;;;;;2.92;0.60;;;13.70;71.80;;;;;;7404529;19;19919;-75
2023/03/14 07:53:42;;;;;;;2.83;0.73;;;13.80;71.70;;;;;;7386810;19;20213;-74
2023/03/14 07:56:08;;;;;;;3.03;0.63;;;13.90;71.50;;;;;;7407160;19;19950;-74
2023/03/14 07:58:34;;;;;;;4.32;0.93;;;13.90;71.10;;;;;;7408376;19;19931;-75
2023/03/14 08:01:00;;;;;;;3.92;0.50;;;14.00;70.90;;;;;;7408396;19;19911;-74
2023/03/14 08:03:26;;;;;;;4.95;0.77;;;14.00;70.90;;;;;;7403949;19;19922;-74
2023/03/14 08:05:53;;;;;;;4.50;0.75;;;14.10;70.70;;;;;;7409004;19;19966;-76
2023/03/14 08:08:19;;;;;;;5.50;0.63;;;14.10;70.50;;;;;;7408386;19;19914;-76
2023/03/14 08:10:46;;;;;;;3.72;0.80;;;14.20;70.50;;;;;;7408989;19;19943;-74
2023/03/14 08:13:12;;;;;;;3.97;1.08;;;14.20;70.40;;;;;;7373725;19;19923;-75
2023/03/14 08:15:38;;;;;;;3.05;0.57;;;14.30;70.30;;;;;;7408881;19;19915;-75
2023/03/14 08:18:05;;;;;;;3.83;0.60;;;14.30;70.00;;;;;;7373088;19;20244;-74
2023/03/14 08:20:31;;;;;;;3.80;0.50;;;14.40;69.70;;;;;;7354137;19;19915;-75
2023/03/14 08:22:58;;;;;;;3.90;0.70;;;14.40;69.60;;;;;;7408687;19;20271;-75
2023/03/14 08:25:24;;;;;;;;;;;14.40;69.50;;;;;;7407658;19;19926;-75
2023/03/14 08:27:50;;;;;;;4.18;1.00;;;14.50;69.20;;;;;;7384296;19;19931;-75
2023/03/14 08:30:18;;;;;;;3.08;0.50;;;14.50;69.20;;;;;;7402443;19;19911;-75
2023/03/14 08:32:48;;;;;;;3.85;0.60;;;14.70;69.00;;;;;;7400533;19;19923;-76
2023/03/14 08:35:14;;;;;;;2.17;0.50;;;14.70;68.70;;;;;;7408367;19;19922;-74
2023/03/14 08:37:41;;;;;;;3.78;0.85;;;14.90;68.70;;;;;;7386328;19;20373;-76
2023/03/14 08:40:08;;;;;;;5.20;0.80;;;16.10;66.70;;;;;;7396693;19;19922;-76
2023/03/14 08:42:34;;;;;;;5.88;0.93;;;17.40;64.40;;;;;;7390785;19;20473;-75
2023/03/14 08:45:00;;;;;;;3.13;0.90;;;18.00;63.50;;;;;;7396922;19;19930;-76
2023/03/14 08:47:25;;;;;;;2.53;1.00;;;18.40;62.00;;;;;;7379026;19;19993;-75
2023/03/14 08:49:51;;;;;;;2.85;0.88;;;18.10;62.20;;;;;;7366077;19;19911;-76
2023/03/14 08:52:17;;;;;;;4.38;1.35;;;17.70;62.70;;;;;;7345906;19;19932;-75
2023/03/14 08:54:46;;;;;;;5.25;2.03;;;18.70;61.90;;;;;;7393106;19;19963;-75
2023/03/14 08:57:12;;;;;;;5.63;1.15;;;19.20;61.10;;;;;;7392627;19;19943;-76
2023/03/14 08:59:38;;;;;;;4.38;1.45;;;19.60;60.30;;;;;;7396695;19;19919;-76
2023/03/14 09:02:04;;;;;;;5.97;1.23;;;20.00;59.50;;;;;;7401568;19;20139;-76
2023/03/14 09:04:31;;;;;;;3.88;0.93;;;20.30;59.30;;;;;;7402138;19;19911;-75
2023/03/14 09:07:00;;;;;;;4.40;1.50;;;19.90;60.10;;;;;;7396457;19;19929;-75
2023/03/14 09:09:27;;;;;;;5.07;1.23;;;19.50;60.10;;;;;;7402962;19;20248;-75
2023/03/14 09:11:53;;;;;;;8.23;1.45;;;19.60;59.80;;;;;;7403846;19;20462;-76
2023/03/14 09:14:19;;;;;;;4.65;1.58;;;19.40;60.20;;;;;;7395808;19;19922;-76
2023/03/14 09:16:44;;;;;;;4.63;0.95;;;19.50;60.10;;;;;;7399290;19;19922;-75
2023/03/14 09:19:10;;;;;;;3.33;1.13;;;20.00;60.00;;;;;;7395008;19;19923;-76
2023/03/14 09:21:38;;;;;;;4.32;1.20;;;20.00;59.30;;;;;;7405879;19;19942;-75
2023/03/14 09:24:04;;;;;;;7.63;1.70;;;20.60;59.80;;;;;;7400322;19;19910;-76
2023/03/14 09:26:30;;;;;;;5.57;1.58;;;20.80;58.50;;;;;;7402908;19;19923;-76
2023/03/14 09:28:56;;;;;;;3.88;1.25;;;21.00;58.20;;;;;;7396964;19;20337;-75
2023/03/14 09:31:23;;;;;;;6.03;1.10;;;21.40;58.00;;;;;;7397173;19;20584;-76
2023/03/14 09:33:49;;;;;;;8.05;1.63;;;21.80;57.70;;;;;;7398968;19;20079;-75
2023/03/14 09:36:14;;;;;;;4.13;1.33;;;21.60;57.60;;;;;;7401534;19;19914;-75
2023/03/14 09:38:40;;;;;;;5.72;1.00;;;21.80;57.10;;;;;;7372938;19;19919;-76
2023/03/14 09:41:17;;;;;;;6.47;1.42;;;22.00;56.70;;;;;;7400883;19;19922;-75
2023/03/14 09:43:46;;;;;;;9.32;1.42;;;22.50;55.80;;;;;;7402727;19;19986;-75
2023/03/14 09:46:13;;;;;;;6.88;1.58;;;22.60;55.80;;;;;;7329238;19;19914;-74
2023/03/14 09:48:40;;;;;;;11.48;1.67;;;22.40;55.60;;;;;;7380237;19;19951;-75
2023/03/14 09:51:21;;;;;;;9.95;1.60;;;22.30;55.70;;;;;;7402952;19;19922;-75
2023/03/14 09:53:49;;;;;;;6.88;1.58;;;22.70;55.20;;;;;;7409104;19;19925;-75
2023/03/14 09:56:24;;;;;;;5.55;1.60;;;21.50;56.00;;;;;;7404342;19;19932;-76
2023/03/14 09:58:59;;;;;;;6.85;1.30;;;20.60;57.00;;;;;;7398674;19;19931;-76
2023/03/14 10:01:31;;;;;;;10.70;1.48;;;19.10;58.90;;;;;;7389100;19;19917;-75
2023/03/14 10:04:01;;;;;;;5.63;1.13;;;18.70;59.90;;;;;;7405123;19;19922;-75
2023/03/14 10:06:30;;;;;;;3.72;1.00;;;18.00;61.10;;;;;;7390075;19;19978;-76
2023/03/14 10:08:56;;;;;;;7.60;1.52;;;17.90;61.20;;;;;;7397526;19;19930;-75
2023/03/14 10:11:23;;;;;;;6.60;0.90;;;18.40;60.70;;;;;;7394065;19;19927;-74
2023/03/14 10:14:03;;;;;;;9.95;1.35;;;18.40;60.50;;;;;;7396577;19;19928;-74
2023/03/14 10:16:35;;;;;;;8.82;1.70;;;18.90;60.50;;;;;;7384155;19;19911;-74
2023/03/14 10:19:06;;;;;;;7.38;1.40;;;19.30;59.40;;;;;;7396737;19;20248;-74
2023/03/14 10:21:42;;;;;;;3.28;1.02;;;19.40;58.90;;;;;;7367800;19;19929;-74
2023/03/14 10:24:26;;;;;;;5.90;1.05;;;19.40;58.80;;;;;;7394321;19;19918;-74
2023/03/14 10:27:03;;;;;;;9.10;1.50;;;19.70;58.80;;;;;;7398613;19;19922;-74
2023/03/14 10:29:50;;;;;;;8.80;1.30;;;19.70;58.50;;;;;;7364307;19;19919;-74
2023/03/14 10:32:20;;;;;;;7.15;1.38;;;19.90;58.60;;;;;;7399388;19;19914;-75
2023/03/14 10:35:15;;;;;;;2.65;0.93;;;19.70;58.30;;;;;;7395618;19;20348;-74
2023/03/14 10:37:58;;;;;;;5.05;0.80;;;20.20;57.90;;;;;;7398413;19;19955;-74
2023/03/14 10:40:29;;;;;;;6.82;1.35;;;20.40;57.40;;;;;;7394819;19;19918;-75
2023/03/14 10:42:57;;;;;;;4.50;1.05;;;20.30;57.30;;;;;;7399742;19;19918;-75
2023/03/14 10:45:23;;;;;;;3.92;1.17;;;20.50;57.20;;;;;;7390010;19;20468;-74
2023/03/14 10:47:50;;;;;;;6.55;1.75;;;20.10;57.40;;;;;;7390097;19;19918;-74
2023/03/14 10:50:26;;;;;;;4.50;1.00;;;20.20;57.50;;;;;;7397912;19;19922;-74
2023/03/14 10:52:54;;;;;;;5.40;1.25;;;20.50;56.90;;;;;;7391590;19;19914;-75
2023/03/14 10:55:20;;;;;;;2.08;0.85;;;20.20;57.30;;;;;;7393736;19;19934;-73
2023/03/14 10:57:46;;;;;;;4.05;1.48;;;20.40;56.50;;;;;;7392651;19;19915;-75
2023/03/14 11:00:21;;;;;;;3.25;0.73;;;20.40;56.00;;;;;;7395889;19;19930;-73
2023/03/14 11:03:03;;;;;;;4.60;1.30;;;20.80;55.80;;;;;;7392501;19;20374;-74
2023/03/14 11:05:45;;;;;;;5.30;1.02;;;21.30;55.20;;;;;;7378631;19;19949;-74
2023/03/14 11:08:23;;;;;;;4.45;0.95;;;20.80;55.70;;;;;;7394547;19;19967;-74
2023/03/14 11:11:02;;;;;;;4.55;1.05;;;21.00;55.80;;;;;;7391841;19;19915;-73
2023/03/14 11:13:39;;;;;;;6.05;1.73;;;21.00;56.10;;;;;;7395280;19;19948;-74
2023/03/14 11:16:08;;;;;;;8.00;2.85;;;20.90;56.20;;;;;;7402120;19;20350;-74
2023/03/14 11:18:39;;;;;;;3.53;1.02;;;21.00;56.10;;;;;;7403348;19;19925;-74
2023/03/14 11:21:09;;;;;;;6.32;1.60;;;21.00;55.60;;;;;;7395644;19;19926;-74
2023/03/14 11:23:56;;;;;;;5.03;1.40;;;21.20;55.30;;;;;;7408076;19;19922;-73
2023/03/14 11:26:34;;;;;;;5.18;1.30;;;21.20;55.50;;;;;;7398765;19;19931;-74
2023/03/14 11:29:19;;;;;;;4.35;1.13;;;21.30;55.10;;;;;;7342028;19;19918;-73
2023/03/14 11:31:46;;;;;;;3.15;1.00;;;21.00;54.90;;;;;;7369687;19;19911;-73
2023/03/14 11:34:20;;;;;;;7.32;1.40;;;20.50;55.70;;;;;;7404611;19;19914;-74
2023/03/14 11:36:57;;;;;;;7.20;1.20;;;20.30;56.40;;;;;;7404088;19;19922;-73
2023/03/14 11:39:26;;;;;;;4.05;0.90;;;20.60;56.30;;;;;;7396078;19;19942;-74
2023/03/14 11:41:55;;;;;;;3.45;0.98;;;20.60;56.00;;;;;;7381299;19;19915;-74
2023/03/14 11:44:24;;;;;;;5.50;1.08;;;20.00;56.40;;;;;;7403648;19;19948;-74
2023/03/14 11:47:06;;;;;;;7.72;1.73;;;20.10;56.90;;;;;;7399660;19;26540;-73
2023/03/14 11:49:51;;;;;;;6.15;1.30;;;20.30;56.00;;;;;;7397181;19;19914;-76
2023/03/14 11:52:31;;;;;;;5.57;1.52;;;20.60;56.00;;;;;;7399132;19;19963;-74
2023/03/14 11:55:00;;;;;;;7.53;1.13;;;20.90;55.60;;;;;;7402833;19;19918;-73
2023/03/14 11:57:26;;;;;;;4.18;1.10;;;20.90;55.40;;;;;;7391985;19;19922;-74
2023/03/14 11:59:55;;;;;;;5.70;1.13;;;21.00;54.50;;;;;;7401070;19;19910;-74
2023/03/14 12:02:39;;;;;;;6.38;1.30;;;20.70;54.10;;;;;;7398373;19;20014;-74
2023/03/14 12:05:38;;;;;;;5.22;0.95;;;20.70;54.40;;;;;;7396362;19;19923;-74
2023/03/14 12:08:07;;;;;;;4.30;1.00;;;20.70;54.40;;;;;;7392123;19;19930;-74
2023/03/14 12:10:56;;;;;;;5.55;1.35;;;20.90;54.40;;;;;;7393104;19;19982;-74
2023/03/14 12:13:29;;;;;;;8.85;2.25;;;21.20;53.60;;;;;;7400358;19;19922;-74
2023/03/14 12:16:00;;;;;;;8.07;1.60;;;21.80;54.10;;;;;;7399429;19;20161;-75
2023/03/14 12:18:29;;;;;;;7.90;1.52;;;22.00;53.40;;;;;;7405428;19;20339;-74
2023/03/14 12:21:02;;;;;;;5.13;1.13;;;22.10;53.80;;;;;;7396800;19;20313;-75
2023/03/14 12:23:37;;;;;;;4.38;1.38;;;22.00;53.50;;;;;;7402398;19;19919;-75
2023/03/14 12:26:14;;;;;;;7.18;1.50;;;21.70;54.20;;;;;;7391602;19;19934;-73
2023/03/14 12:28:57;;;;;;;6.50;1.45;;;22.30;53.80;;;;;;7390271;19;19985;-74
2023/03/14 12:31:31;;;;;;;4.20;0.95;;;22.20;53.10;;;;;;7373365;19;19938;-73
2023/03/14 12:34:23;;;;;;;7.20;1.52;;;22.70;52.40;;;;;;7387245;19;20346;-74
2023/03/14 12:36:57;;;;;;;5.97;1.27;;;22.30;52.20;;;;;;7381706;19;19952;-73
2023/03/14 12:40:01;;;;;;;5.55;0.98;;;22.00;52.00;;;;;;7398917;19;19954;-75
2023/03/14 12:42:29;;;;;;;4.60;1.20;;;22.50;52.00;;;;;;7400818;19;19922;-74
2023/03/14 12:45:22;;;;;;;6.45;1.10;;;22.80;51.50;;;;;;7405348;19;19921;-73
2023/03/14 12:48:15;;;;;;;6.18;1.38;;;22.50;52.50;;;;;;7405775;19;20332;-74
2023/03/14 12:50:46;;;;;;;6.85;1.15;;;22.80;51.60;;;;;;7407092;19;20277;-76
2023/03/14 12:53:46;;;;;;;6.05;1.77;;;23.10;51.20;;;;;;7392533;19;19918;-73
2023/03/14 12:56:21;;;;;;;5.97;1.35;;;23.10;51.60;;;;;;7387662;19;19918;-75
2023/03/14 12:59:24;;;;;;;6.00;1.63;;;22.80;50.70;;;;;;7404353;19;19917;-73